Accueil
METAR-TAF:

METAR-TAF

Aéroports :

Aéroport John-Wayne

Santa Ana, Californie, États-Unis

latitude: 33-40-48N, longitude: 117-51-59W, altitude: 16 m

Observation

Le bulletin a été fait il y a 42 minutes, à 23:53 UTC
Vent 7 kt de sud/sud-ouest
Température 19°C
Humidité 64%
Pression 1021 hPa
Visibilité: 12.9 km
Nuages épars à une hauteur de 18000 ft

METAR: KSNA 272353Z 21007KT 8SM SCT180 19/12 A3015 RMK AO2 SLP211 T01940117 10228 20161 55004

Heure: 16:35 (00:35 UTC)

Prévision

Le bulletin a été fait il y a 56 minutes, à 23:39 UTC
Prévision valable du 28 à 00 UTC au 28 à 24 UTC
Vent 5 kt de sud-ouest
Visibilité: 9.7 km
Nuages épars à une hauteur de 25000 ft
brume sèche

TAF: KSNA 272339Z 2800/2824 23005KT 6SM HZ SCT250

Observations et prévisions météorologiques de plus de 4000 aéroports (messages METAR et TAF).

Les stations disponibles sont représentées par des disques jaunes et rouges sur la carte.

Passer la souris dessus pour voir le nom de la station.

Cliquer dessus pour voir les observations et prévisions météorologiques.

Pour changer de carte: cliquez sur les boutons verts avec une croix noire pour zoomer, sur le bouton vert avec un tiret pour effectuer un zoom arrière, ou sur les flèches vertes pour les cartes adjacentes.


METAR-TAF: